createdAt,value
2024-03-05T00:00:37.586Z,473.00
2024-03-05T00:01:37.744Z,474.00
2024-03-05T00:02:37.715Z,473.00
2024-03-05T00:03:37.760Z,471.00
2024-03-05T00:04:37.870Z,469.00
2024-03-05T00:05:37.835Z,474.00
2024-03-05T00:06:37.864Z,476.00
2024-03-05T00:07:37.926Z,478.00
2024-03-05T00:08:37.940Z,478.00
2024-03-05T00:09:37.970Z,477.00
2024-03-05T00:10:38.094Z,475.00
2024-03-05T00:11:38.168Z,472.00
2024-03-05T00:12:38.135Z,472.00
2024-03-05T00:13:38.202Z,473.00
2024-03-05T00:14:38.246Z,474.00
2024-03-05T00:15:38.257Z,473.00
2024-03-05T00:16:38.402Z,472.00
2024-03-05T00:17:38.616Z,471.00
2024-03-05T00:18:38.434Z,471.00
2024-03-05T00:19:38.541Z,473.00
2024-03-05T00:20:38.541Z,473.00
2024-03-05T00:21:38.573Z,473.00
2024-03-05T00:22:38.587Z,474.00
2024-03-05T00:23:38.675Z,472.00
2024-03-05T00:24:38.715Z,469.00
2024-03-05T00:25:38.860Z,467.00
2024-03-05T00:26:38.813Z,467.00
2024-03-05T00:27:38.850Z,470.00
2024-03-05T00:28:38.938Z,471.00
2024-03-05T00:29:38.964Z,471.00
2024-03-05T00:30:39.016Z,471.00
2024-03-05T00:31:39.187Z,472.00
2024-03-05T00:32:39.090Z,471.00
2024-03-05T00:33:39.111Z,471.00
2024-03-05T00:34:39.211Z,471.00
2024-03-05T00:35:39.188Z,470.00
2024-03-05T00:36:39.201Z,471.00
2024-03-05T00:37:39.502Z,471.00
2024-03-05T00:38:39.317Z,472.00
2024-03-05T00:39:39.313Z,473.00
2024-03-05T00:40:39.405Z,472.00
2024-03-05T00:41:39.385Z,470.00
2024-03-05T00:42:39.459Z,470.00
2024-03-05T00:43:39.509Z,470.00
2024-03-05T00:44:39.495Z,471.00
2024-03-05T00:45:39.574Z,471.00
2024-03-05T00:46:39.694Z,471.00
2024-03-05T00:47:39.670Z,470.00
2024-03-05T00:48:39.703Z,470.00
2024-03-05T00:49:39.840Z,471.00
2024-03-05T00:50:39.748Z,471.00
2024-03-05T00:51:39.791Z,472.00
2024-03-05T00:52:39.880Z,470.00
2024-03-05T00:53:39.827Z,471.00
2024-03-05T00:54:39.858Z,469.00
2024-03-05T00:55:39.937Z,470.00
2024-03-05T00:56:39.921Z,471.00
2024-03-05T00:57:39.958Z,473.00
2024-03-05T00:58:40.100Z,473.00
2024-03-05T00:59:40.070Z,473.00
2024-03-05T01:00:40.108Z,473.00
2024-03-05T01:01:40.230Z,473.00
2024-03-05T01:02:40.198Z,473.00
2024-03-05T01:03:40.272Z,475.00
2024-03-05T01:04:40.330Z,475.00
2024-03-05T01:05:40.365Z,474.00
2024-03-05T01:06:40.425Z,472.00
2024-03-05T01:07:40.640Z,474.00
2024-03-05T01:08:40.567Z,475.00
2024-03-05T01:09:40.658Z,473.00
2024-03-05T01:10:40.727Z,475.00
2024-03-05T01:11:40.770Z,478.00
2024-03-05T01:12:40.798Z,478.00
2024-03-05T01:13:40.844Z,476.00
2024-03-05T01:14:40.875Z,474.00
2024-03-05T01:15:40.970Z,474.00
2024-03-05T01:16:41.017Z,474.00
2024-03-05T01:17:41.145Z,476.00
2024-03-05T01:18:41.126Z,477.00
2024-03-05T01:19:41.308Z,475.00
2024-03-05T01:20:41.250Z,475.00
2024-03-05T01:21:41.310Z,473.00
2024-03-05T01:22:41.463Z,471.00
2024-03-05T01:23:41.383Z,469.00
2024-03-05T01:24:41.461Z,470.00
2024-03-05T01:25:41.516Z,472.00
2024-03-05T01:26:41.561Z,472.00
2024-03-05T01:27:41.588Z,474.00
2024-03-05T01:28:41.651Z,475.00
2024-03-05T01:29:41.710Z,474.00
2024-03-05T01:30:41.742Z,474.00
2024-03-05T01:31:41.804Z,472.00
2024-03-05T01:32:41.884Z,473.00
2024-03-05T01:33:41.917Z,477.00
2024-03-05T01:34:41.962Z,478.00
2024-03-05T01:35:41.993Z,478.00
2024-03-05T01:36:42.052Z,477.00
2024-03-05T01:37:42.153Z,476.00
2024-03-05T01:38:42.138Z,476.00
2024-03-05T01:39:42.210Z,478.00
2024-03-05T01:40:42.302Z,479.00
2024-03-05T01:41:42.293Z,480.00
2024-03-05T01:42:42.337Z,482.00
2024-03-05T01:43:42.382Z,484.00
2024-03-05T01:44:42.447Z,483.00
2024-03-05T01:45:42.501Z,484.00
2024-03-05T01:46:42.592Z,483.00
2024-03-05T01:47:42.662Z,483.00
2024-03-05T01:48:42.663Z,481.00
2024-03-05T01:49:42.725Z,482.00
2024-03-05T01:50:42.787Z,484.00
2024-03-05T01:51:42.817Z,480.00
2024-03-05T01:52:42.852Z,482.00
2024-03-05T01:53:42.912Z,485.00
2024-03-05T01:54:42.961Z,483.00
2024-03-05T01:55:43.036Z,485.00
2024-03-05T01:56:43.038Z,485.00
2024-03-05T01:57:43.087Z,484.00
2024-03-05T01:58:43.202Z,483.00
2024-03-05T01:59:43.204Z,481.00
2024-03-05T02:00:43.251Z,481.00
2024-03-05T02:01:43.408Z,482.00
2024-03-05T02:02:43.317Z,482.00
2024-03-05T02:03:43.416Z,479.00
2024-03-05T02:04:43.939Z,479.00
2024-03-05T02:05:43.474Z,482.00
2024-03-05T02:06:43.623Z,482.00
2024-03-05T02:07:43.553Z,481.00
2024-03-05T02:08:43.603Z,482.00
2024-03-05T02:09:43.654Z,482.00
2024-03-05T02:10:43.721Z,481.00
2024-03-05T02:11:52.801Z,481.00
2024-03-05T02:12:44.767Z,482.00
2024-03-05T02:13:43.742Z,482.00
2024-03-05T02:14:43.752Z,482.00
2024-03-05T02:15:43.761Z,479.00
2024-03-05T02:16:43.751Z,480.00
2024-03-05T02:17:43.849Z,478.00
2024-03-05T02:18:43.733Z,477.00
2024-03-05T02:19:43.759Z,479.00
2024-03-05T02:20:43.710Z,478.00
2024-03-05T02:21:43.748Z,481.00
2024-03-05T02:22:43.875Z,483.00
2024-03-05T02:23:43.742Z,483.00
2024-03-05T02:24:43.758Z,483.00
2024-03-05T02:25:43.817Z,485.00
2024-03-05T02:26:43.718Z,488.00
2024-03-05T02:27:43.758Z,487.00
2024-03-05T02:28:43.826Z,486.00
2024-03-05T02:29:43.807Z,486.00
2024-03-05T02:30:43.864Z,492.00
2024-03-05T02:31:43.907Z,491.00
2024-03-05T02:32:43.979Z,486.00
2024-03-05T02:33:44.005Z,485.00
2024-03-05T02:34:44.044Z,481.00
2024-03-05T02:35:44.055Z,482.00
2024-03-05T02:36:44.130Z,481.00
2024-03-05T02:37:44.223Z,482.00
2024-03-05T02:38:44.243Z,484.00
2024-03-05T02:39:44.301Z,483.00
2024-03-05T02:40:44.378Z,485.00
2024-03-05T02:41:44.372Z,486.00
2024-03-05T02:42:44.427Z,485.00
2024-03-05T02:43:44.461Z,482.00
2024-03-05T02:44:44.491Z,482.00
2024-03-05T02:45:44.502Z,485.00
2024-03-05T02:46:44.624Z,483.00
2024-03-05T02:47:44.599Z,484.00
2024-03-05T02:48:44.663Z,481.00
2024-03-05T02:49:44.720Z,479.00
2024-03-05T02:50:44.746Z,480.00
2024-03-05T02:51:44.789Z,481.00
2024-03-05T02:52:44.819Z,481.00
2024-03-05T02:53:44.828Z,480.00
2024-03-05T02:54:44.869Z,478.00
2024-03-05T02:55:44.974Z,481.00
2024-03-05T02:56:44.943Z,483.00
2024-03-05T02:57:44.989Z,482.00
2024-03-05T02:58:45.048Z,485.00
2024-03-05T02:59:45.101Z,486.00
2024-03-05T03:00:45.192Z,485.00
2024-03-05T03:01:45.171Z,486.00
2024-03-05T03:02:45.191Z,487.00
2024-03-05T03:03:45.186Z,488.00
2024-03-05T03:04:45.327Z,487.00
2024-03-05T03:05:45.281Z,490.00
2024-03-05T03:06:45.286Z,491.00
2024-03-05T03:07:45.447Z,488.00
2024-03-05T03:08:45.347Z,487.00
2024-03-05T03:09:45.382Z,490.00
2024-03-05T03:10:45.497Z,491.00
2024-03-05T03:11:45.530Z,492.00
2024-03-05T03:12:45.509Z,495.00
2024-03-05T03:13:45.613Z,497.00
2024-03-05T03:14:45.575Z,494.00
2024-03-05T03:15:45.590Z,495.00
2024-03-05T03:16:45.643Z,494.00
2024-03-05T03:17:45.682Z,491.00
2024-03-05T03:18:45.677Z,489.00
2024-03-05T03:19:45.797Z,488.00
2024-03-05T03:20:45.782Z,490.00
2024-03-05T03:21:45.834Z,488.00
2024-03-05T03:22:45.900Z,490.00
2024-03-05T03:23:45.904Z,490.00
2024-03-05T03:24:45.935Z,490.00
2024-03-05T03:25:45.988Z,490.00
2024-03-05T03:26:46.039Z,486.00
2024-03-05T03:27:46.024Z,486.00
2024-03-05T03:28:46.192Z,484.00
2024-03-05T03:29:46.090Z,488.00
2024-03-05T03:30:46.114Z,487.00
2024-03-05T03:31:46.202Z,487.00
2024-03-05T03:32:46.271Z,485.00
2024-03-05T03:33:46.184Z,487.00
2024-03-05T03:34:46.245Z,486.00
2024-03-05T03:35:46.238Z,486.00
2024-03-05T03:36:46.284Z,490.00
2024-03-05T03:37:46.354Z,488.00
2024-03-05T03:38:46.348Z,490.00
2024-03-05T03:39:46.460Z,490.00
2024-03-05T03:40:46.414Z,490.00
2024-03-05T03:41:49.776Z,487.00
2024-03-05T03:42:46.545Z,487.00
2024-03-05T03:43:46.509Z,485.00
2024-03-05T03:44:46.486Z,484.00
2024-03-05T03:45:46.506Z,484.00
2024-03-05T03:46:46.556Z,485.00
2024-03-05T03:47:46.501Z,487.00
2024-03-05T03:48:46.545Z,488.00
2024-03-05T03:49:46.464Z,485.00
2024-03-05T03:50:46.580Z,484.00
2024-03-05T03:51:46.491Z,481.00
2024-03-05T03:52:46.568Z,479.00
2024-03-05T03:53:46.517Z,478.00
2024-03-05T03:54:46.561Z,478.00
2024-03-05T03:55:46.519Z,476.00
2024-03-05T03:56:46.526Z,476.00
2024-03-05T03:57:46.505Z,477.00
2024-03-05T03:58:46.623Z,478.00
2024-03-05T03:59:46.549Z,479.00
2024-03-05T04:00:46.497Z,481.00
2024-03-05T04:01:46.524Z,483.00
2024-03-05T04:02:46.514Z,481.00
2024-03-05T04:03:46.558Z,481.00
2024-03-05T04:04:46.566Z,482.00
2024-03-05T04:05:46.516Z,481.00
2024-03-05T04:06:46.565Z,483.00
2024-03-05T04:07:46.611Z,480.00
2024-03-05T04:08:46.581Z,483.00
2024-03-05T04:09:46.570Z,479.00
2024-03-05T04:10:46.717Z,482.00
2024-03-05T04:11:46.557Z,482.00
2024-03-05T04:12:46.516Z,482.00
2024-03-05T04:13:46.605Z,483.00
2024-03-05T04:14:46.566Z,484.00
2024-03-05T04:15:46.578Z,483.00
2024-03-05T04:16:46.611Z,482.00
2024-03-05T04:17:46.558Z,482.00
2024-03-05T04:18:46.481Z,483.00
2024-03-05T04:19:46.584Z,484.00
2024-03-05T04:20:46.554Z,483.00
2024-03-05T04:21:46.488Z,483.00
2024-03-05T04:22:46.502Z,484.00
2024-03-05T04:23:46.550Z,483.00
2024-03-05T04:24:46.569Z,479.00
2024-03-05T04:25:46.561Z,481.00
2024-03-05T04:26:46.493Z,483.00
2024-03-05T04:27:46.577Z,485.00
2024-03-05T04:28:46.508Z,484.00
2024-03-05T04:29:46.484Z,485.00
2024-03-05T04:30:46.494Z,485.00
2024-03-05T04:32:48.393Z,488.00
2024-03-05T04:33:47.535Z,487.00
2024-03-05T04:34:46.546Z,488.00
2024-03-05T04:35:46.482Z,486.00
2024-03-05T04:36:46.493Z,485.00
2024-03-05T04:37:53.810Z,487.00
2024-03-05T04:38:53.736Z,487.00
2024-03-05T04:39:53.775Z,483.00
2024-03-05T04:40:53.817Z,482.00
2024-03-05T04:41:53.740Z,482.00
2024-03-05T04:42:53.781Z,482.00
2024-03-05T04:43:53.810Z,482.00
2024-03-05T04:44:53.744Z,481.00
2024-03-05T04:45:53.768Z,479.00
2024-03-05T04:46:53.862Z,480.00
2024-03-05T04:47:53.786Z,479.00
2024-03-05T04:48:53.780Z,479.00
2024-03-05T04:49:53.929Z,478.00
2024-03-05T04:50:53.800Z,478.00
2024-03-05T04:51:53.782Z,480.00
2024-03-05T04:52:53.796Z,480.00
2024-03-05T04:53:53.783Z,478.00
2024-03-05T04:54:53.787Z,477.00
2024-03-05T04:55:53.816Z,477.00
2024-03-05T04:56:53.785Z,476.00
2024-03-05T04:57:53.762Z,473.00
2024-03-05T04:58:53.862Z,474.00
2024-03-05T04:59:53.921Z,475.00
2024-03-05T05:00:53.808Z,475.00
2024-03-05T05:01:53.803Z,474.00
2024-03-05T05:02:54.266Z,476.00
2024-03-05T05:03:53.769Z,477.00
2024-03-05T05:04:53.916Z,476.00
2024-03-05T05:05:53.835Z,479.00
2024-03-05T05:06:53.809Z,481.00
2024-03-05T05:07:53.835Z,484.00
2024-03-05T05:08:53.820Z,485.00
2024-03-05T05:09:53.782Z,485.00
2024-03-05T05:10:54.006Z,485.00
2024-03-05T05:11:53.840Z,486.00
2024-03-05T05:12:53.810Z,488.00
2024-03-05T05:13:53.868Z,488.00
2024-03-05T05:14:53.815Z,488.00
2024-03-05T05:15:53.827Z,485.00
2024-03-05T05:16:53.971Z,488.00
2024-03-05T05:17:53.890Z,489.00
2024-03-05T05:18:53.807Z,489.00
2024-03-05T05:19:53.919Z,488.00
2024-03-05T05:20:53.798Z,487.00
2024-03-05T05:21:53.793Z,483.00
2024-03-05T05:22:53.934Z,484.00
2024-03-05T05:23:53.818Z,486.00
2024-03-05T05:24:53.798Z,488.00
2024-03-05T05:25:53.834Z,487.00
2024-03-05T05:26:53.819Z,488.00
2024-03-05T05:27:53.828Z,489.00
2024-03-05T05:28:53.857Z,485.00
2024-03-05T05:30:53.937Z,482.00
2024-03-05T05:31:53.995Z,482.00
2024-03-05T05:32:53.999Z,485.00
2024-03-05T05:33:53.981Z,486.00
2024-03-05T05:34:54.128Z,485.00
2024-03-05T05:35:54.049Z,484.00
2024-03-05T05:36:54.074Z,487.00
2024-03-05T05:37:54.147Z,487.00
2024-03-05T05:38:54.097Z,484.00
2024-03-05T05:39:54.085Z,485.00
2024-03-05T05:40:54.159Z,483.00
2024-03-05T05:41:54.152Z,481.00
2024-03-05T05:42:54.158Z,479.00
2024-03-05T05:43:54.244Z,480.00
2024-03-05T05:44:54.257Z,482.00
2024-03-05T05:45:54.280Z,483.00
2024-03-05T05:46:54.386Z,483.00
2024-03-05T05:47:54.511Z,483.00
2024-03-05T05:48:54.441Z,483.00
2024-03-05T05:50:54.523Z,483.00
2024-03-05T05:51:54.597Z,482.00
2024-03-05T05:52:54.912Z,481.00
2024-03-05T05:53:54.651Z,481.00
2024-03-05T05:54:54.722Z,478.00
2024-03-05T05:55:54.844Z,479.00
2024-03-05T05:56:54.900Z,477.00
2024-03-05T05:57:54.888Z,479.00
2024-03-05T05:58:55.025Z,479.00
2024-03-05T05:59:54.977Z,483.00
2024-03-05T06:01:17.960Z,484.00
2024-03-05T06:01:55.121Z,481.00
2024-03-05T06:02:55.054Z,482.00
2024-03-05T06:03:55.057Z,479.00
2024-03-05T06:04:55.218Z,480.00
2024-03-05T06:05:55.038Z,479.00
2024-03-05T06:06:55.081Z,479.00
2024-03-05T06:07:55.293Z,478.00
2024-03-05T06:08:55.053Z,479.00
2024-03-05T06:09:55.054Z,479.00
2024-03-05T06:10:55.177Z,477.00
2024-03-05T06:11:55.216Z,478.00
2024-03-05T06:12:55.213Z,480.00
2024-03-05T06:13:55.359Z,481.00
2024-03-05T06:14:55.403Z,482.00
2024-03-05T06:15:55.415Z,484.00
2024-03-05T06:16:55.518Z,483.00
2024-03-05T06:17:55.547Z,485.00
2024-03-05T06:18:55.576Z,490.00
2024-03-05T06:19:57.899Z,488.00
2024-03-05T06:20:55.663Z,488.00
2024-03-05T06:21:55.638Z,484.00
2024-03-05T06:22:55.673Z,482.00
2024-03-05T06:23:55.663Z,484.00
2024-03-05T06:24:55.664Z,486.00
2024-03-05T06:25:55.647Z,489.00
2024-03-05T06:26:55.704Z,489.00
2024-03-05T06:27:55.679Z,488.00
2024-03-05T06:28:55.715Z,489.00
2024-03-05T06:29:55.649Z,491.00
2024-03-05T06:30:55.655Z,490.00
2024-03-05T06:31:55.651Z,492.00
2024-03-05T06:32:55.770Z,490.00
2024-03-05T06:33:55.698Z,491.00
2024-03-05T06:34:55.823Z,494.00
2024-03-05T06:35:55.941Z,504.00
2024-03-05T06:36:55.671Z,514.00
2024-03-05T06:37:55.958Z,525.00
2024-03-05T06:38:55.658Z,532.00
2024-03-05T06:39:55.659Z,539.00
2024-03-05T06:40:56.024Z,568.00
2024-03-05T06:41:55.669Z,630.00
2024-03-05T06:42:55.679Z,640.00
2024-03-05T06:43:55.761Z,662.00
2024-03-05T06:44:55.663Z,718.00
2024-03-05T06:46:18.511Z,764.00
2024-03-05T06:46:55.899Z,778.00
2024-03-05T06:48:04.287Z,831.00
2024-03-05T06:48:56.741Z,842.00
2024-03-05T06:49:55.782Z,851.00
2024-03-05T06:50:55.764Z,862.00
2024-03-05T06:51:55.744Z,883.00
2024-03-05T06:52:55.783Z,945.00
2024-03-05T06:53:55.790Z,945.00
2024-03-05T06:54:55.806Z,954.00
2024-03-05T06:55:55.879Z,957.00
2024-03-05T06:56:55.733Z,973.00
2024-03-05T06:57:55.765Z,1002.00
2024-03-05T06:58:55.913Z,1018.00
2024-03-05T06:59:55.747Z,1031.00
2024-03-05T07:00:55.806Z,1049.00
2024-03-05T07:01:55.848Z,1075.00
2024-03-05T07:02:55.832Z,1098.00
2024-03-05T07:03:55.865Z,1123.00
2024-03-05T07:04:55.937Z,1160.00
2024-03-05T07:05:55.960Z,1181.00
2024-03-05T07:06:55.979Z,1189.00
2024-03-05T07:07:56.128Z,1195.00
2024-03-05T07:08:56.228Z,1205.00
2024-03-05T07:09:56.080Z,1212.00
2024-03-05T07:10:56.532Z,1222.00
2024-03-05T07:11:56.180Z,1232.00
2024-03-05T07:12:56.174Z,1245.00
2024-03-05T07:13:56.285Z,1251.00
2024-03-05T07:14:56.240Z,1266.00
2024-03-05T07:15:56.277Z,1275.00
2024-03-05T07:16:56.374Z,1283.00
2024-03-05T07:17:56.383Z,1293.00
2024-03-05T07:18:56.474Z,1307.00
2024-03-05T07:19:56.446Z,1328.00
2024-03-05T07:20:56.438Z,1343.00
2024-03-05T07:21:56.431Z,1383.00
2024-03-05T07:22:56.489Z,1406.00
2024-03-05T07:23:56.625Z,1421.00
2024-03-05T07:24:56.529Z,1444.00
2024-03-05T07:25:56.621Z,1453.00
2024-03-05T07:27:04.515Z,1464.00
2024-03-05T07:27:57.519Z,1476.00
2024-03-05T07:28:57.571Z,1488.00
2024-03-05T07:29:56.496Z,1504.00
2024-03-05T07:30:57.015Z,1518.00
2024-03-05T07:31:56.561Z,1536.00
2024-03-05T07:32:56.549Z,1550.00
2024-03-05T07:33:56.540Z,1562.00
2024-03-05T07:34:56.572Z,1569.00
2024-03-05T07:35:56.996Z,1576.00
2024-03-05T07:36:56.561Z,1576.00
2024-03-05T07:37:56.560Z,1423.00
2024-03-05T07:38:56.503Z,1336.00
2024-03-05T07:39:56.530Z,1300.00
2024-03-05T07:40:57.045Z,1176.00
2024-03-05T07:41:56.549Z,1202.00
2024-03-05T07:42:56.554Z,1179.00
2024-03-05T07:43:56.705Z,1228.00
2024-03-05T07:44:56.583Z,1253.00
2024-03-05T07:45:56.989Z,1320.00
2024-03-05T07:46:56.630Z,1373.00
2024-03-05T07:47:56.569Z,1384.00
2024-03-05T07:48:56.580Z,1393.00
2024-03-05T07:49:56.588Z,1403.00
2024-03-05T07:50:57.063Z,1424.00
2024-03-05T07:51:56.558Z,1456.00
2024-03-05T07:52:56.653Z,1480.00
2024-03-05T07:53:56.739Z,1496.00
2024-03-05T07:54:56.605Z,1506.00
2024-03-05T07:55:57.080Z,1530.00
2024-03-05T07:56:56.694Z,1557.00
2024-03-05T07:57:56.760Z,1571.00
2024-03-05T07:58:56.811Z,1581.00
2024-03-05T07:59:57.741Z,1604.00
2024-03-05T08:00:56.798Z,1621.00
2024-03-05T08:01:57.041Z,1627.00
2024-03-05T08:02:56.745Z,1002.00
2024-03-05T08:03:57.532Z,1077.00
2024-03-05T08:04:57.890Z,1486.00
2024-03-05T08:05:56.772Z,1363.00
2024-03-05T08:06:58.709Z,1351.00
2024-03-05T08:07:56.832Z,1335.00
2024-03-05T08:08:56.757Z,1286.00
2024-03-05T08:09:56.784Z,1248.00
2024-03-05T08:10:56.876Z,1226.00
2024-03-05T08:11:57.047Z,1207.00
2024-03-05T08:12:56.944Z,1137.00
2024-03-05T08:13:56.808Z,1148.00
2024-03-05T08:14:56.777Z,1157.00
2024-03-05T08:15:56.819Z,1119.00
2024-03-05T08:16:56.889Z,1070.00
2024-03-05T08:17:56.931Z,1064.00
2024-03-05T08:18:56.943Z,1046.00
2024-03-05T08:19:57.030Z,1035.00
2024-03-05T08:20:57.063Z,1035.00
2024-03-05T08:21:57.564Z,1035.00
2024-03-05T08:22:57.520Z,1032.00
2024-03-05T08:23:57.110Z,1030.00
2024-03-05T08:24:57.155Z,1030.00
2024-03-05T08:25:58.063Z,1016.00
2024-03-05T08:26:57.526Z,989.00
2024-03-05T08:27:57.302Z,984.00
2024-03-05T08:28:57.391Z,985.00
2024-03-05T08:29:57.371Z,967.00
2024-03-05T08:30:57.417Z,957.00
2024-03-05T08:31:57.596Z,960.00
2024-03-05T08:32:57.579Z,928.00
2024-03-05T08:33:57.502Z,857.00
2024-03-05T08:34:57.586Z,894.00
2024-03-05T08:35:57.581Z,900.00
2024-03-05T08:36:58.054Z,883.00
2024-03-05T08:37:57.769Z,880.00
2024-03-05T08:38:58.097Z,889.00
2024-03-05T08:39:57.787Z,898.00
2024-03-05T08:40:57.840Z,909.00
2024-03-05T08:41:57.828Z,973.00
2024-03-05T08:42:57.849Z,997.00
2024-03-05T08:43:57.925Z,1010.00
2024-03-05T08:44:57.853Z,1030.00
2024-03-05T08:45:57.871Z,1063.00
2024-03-05T08:46:58.153Z,1078.00
2024-03-05T08:47:57.945Z,1086.00
2024-03-05T08:48:57.946Z,1092.00
2024-03-05T08:49:58.030Z,1097.00
2024-03-05T08:50:57.957Z,1101.00
2024-03-05T08:51:57.909Z,1102.00
2024-03-05T08:52:58.038Z,1103.00
2024-03-05T08:53:57.956Z,1106.00
2024-03-05T08:54:58.092Z,1110.00
2024-03-05T08:55:58.158Z,1114.00
2024-03-05T08:56:58.129Z,1116.00
2024-03-05T08:57:58.211Z,1115.00
2024-03-05T08:58:58.312Z,1120.00
2024-03-05T08:59:58.321Z,1125.00
2024-03-05T09:00:58.419Z,1129.00
2024-03-05T09:01:58.463Z,1134.00
2024-03-05T09:02:58.428Z,1138.00
2024-03-05T09:03:58.571Z,1146.00
2024-03-05T09:04:58.686Z,1149.00
2024-03-05T09:05:58.678Z,1154.00
2024-03-05T09:06:59.013Z,1160.00
2024-03-05T09:07:58.890Z,1181.00
2024-03-05T09:08:58.854Z,1201.00
2024-03-05T09:09:58.856Z,1212.00
2024-03-05T09:10:59.068Z,1215.00
2024-03-05T09:11:59.155Z,1220.00
2024-03-05T09:12:59.097Z,1226.00
2024-03-05T09:13:59.201Z,1232.00
2024-03-05T09:14:59.171Z,1244.00
2024-03-05T09:15:59.250Z,1253.00
2024-03-05T09:16:59.656Z,1275.00
2024-03-05T09:17:59.430Z,1284.00
2024-03-05T09:18:59.410Z,1288.00
2024-03-05T09:19:59.638Z,1291.00
2024-03-05T09:20:59.525Z,1295.00
2024-03-05T09:21:59.556Z,1306.00
2024-03-05T09:22:59.818Z,1319.00
2024-03-05T09:23:59.658Z,1323.00
2024-03-05T09:24:59.725Z,1316.00
2024-03-05T09:25:59.837Z,1295.00
2024-03-05T09:26:59.837Z,1241.00
2024-03-05T09:27:59.894Z,1195.00
2024-03-05T09:29:00.017Z,1179.00
2024-03-05T09:30:00.013Z,1170.00
2024-03-05T09:31:00.069Z,1150.00
2024-03-05T09:32:00.613Z,1129.00
2024-03-05T09:33:00.226Z,902.00
2024-03-05T09:34:00.183Z,841.00
2024-03-05T09:35:00.396Z,759.00
2024-03-05T09:36:00.424Z,769.00
2024-03-05T09:37:00.593Z,864.00
2024-03-05T09:38:00.601Z,878.00
2024-03-05T09:39:00.384Z,890.00
2024-03-05T09:40:00.430Z,892.00
2024-03-05T09:41:00.564Z,890.00
2024-03-05T09:42:00.566Z,901.00
2024-03-05T09:43:00.552Z,989.00
2024-03-05T09:44:00.774Z,1108.00
2024-03-05T09:45:00.644Z,1086.00
2024-03-05T09:46:00.761Z,1043.00
2024-03-05T09:47:00.715Z,1021.00
2024-03-05T09:48:00.755Z,1000.00
2024-03-05T09:49:10.833Z,882.00
2024-03-05T09:50:01.907Z,841.00
2024-03-05T09:51:00.858Z,901.00
2024-03-05T09:52:00.851Z,995.00
2024-03-05T09:53:01.142Z,1047.00
2024-03-05T09:54:00.759Z,1085.00
2024-03-05T09:55:00.845Z,1074.00
2024-03-05T09:56:00.820Z,1036.00
2024-03-05T09:57:00.790Z,992.00
2024-03-05T09:58:01.046Z,986.00
2024-03-05T09:59:00.841Z,983.00
2024-03-05T10:00:00.850Z,964.00
2024-03-05T10:01:00.846Z,952.00
2024-03-05T10:02:00.958Z,942.00
2024-03-05T10:03:01.066Z,935.00
2024-03-05T10:04:00.899Z,932.00
2024-03-05T10:05:01.129Z,923.00
2024-03-05T10:06:01.039Z,922.00
2024-03-05T10:07:01.070Z,926.00
2024-03-05T10:08:01.182Z,926.00
2024-03-05T10:09:01.221Z,923.00
2024-03-05T10:10:01.250Z,917.00
2024-03-05T10:11:01.421Z,918.00
2024-03-05T10:12:01.504Z,919.00
2024-03-05T10:13:01.587Z,916.00
2024-03-05T10:14:01.526Z,922.00
2024-03-05T10:15:01.536Z,927.00
2024-03-05T10:16:01.553Z,923.00
2024-03-05T10:17:01.904Z,921.00
2024-03-05T10:18:03.771Z,918.00
2024-03-05T10:19:01.722Z,914.00
2024-03-05T10:20:01.778Z,909.00
2024-03-05T10:21:01.790Z,903.00
2024-03-05T10:22:01.849Z,896.00
2024-03-05T10:23:01.888Z,813.00
2024-03-05T10:24:01.874Z,836.00
2024-03-05T10:25:01.913Z,884.00
2024-03-05T10:26:02.007Z,902.00
2024-03-05T10:27:01.980Z,911.00
2024-03-05T10:28:01.996Z,908.00
2024-03-05T10:29:02.071Z,905.00
2024-03-05T10:30:02.039Z,905.00
2024-03-05T10:31:02.095Z,904.00
2024-03-05T10:32:02.133Z,912.00
2024-03-05T10:33:02.289Z,919.00
2024-03-05T10:34:02.156Z,921.00
2024-03-05T10:35:02.261Z,914.00
2024-03-05T10:36:02.147Z,912.00
2024-03-05T10:37:02.169Z,914.00
2024-03-05T10:38:02.588Z,917.00
2024-03-05T10:39:02.223Z,893.00
2024-03-05T10:40:02.320Z,888.00
2024-03-05T10:41:02.346Z,875.00
2024-03-05T10:42:02.299Z,830.00
2024-03-05T10:43:02.615Z,826.00
2024-03-05T10:44:02.349Z,829.00
2024-03-05T10:45:02.317Z,835.00
2024-03-05T10:46:02.364Z,847.00
2024-03-05T10:47:02.465Z,953.00
2024-03-05T10:48:02.614Z,949.00
2024-03-05T10:49:02.417Z,929.00
2024-03-05T10:50:02.557Z,892.00
2024-03-05T10:51:02.401Z,865.00
2024-03-05T10:52:02.473Z,870.00
2024-03-05T10:53:02.520Z,881.00
2024-03-05T10:54:02.498Z,931.00
2024-03-05T10:55:06.175Z,942.00
2024-03-05T10:56:02.615Z,950.00
2024-03-05T10:57:02.557Z,960.00
2024-03-05T10:58:02.524Z,968.00
2024-03-05T10:59:02.545Z,966.00
2024-03-05T11:00:02.607Z,969.00
2024-03-05T11:01:02.583Z,980.00
2024-03-05T11:02:02.562Z,989.00
2024-03-05T11:03:02.510Z,996.00
2024-03-05T11:04:02.549Z,998.00
2024-03-05T11:05:02.775Z,1002.00
2024-03-05T11:06:02.527Z,1016.00
2024-03-05T11:07:02.575Z,1021.00
2024-03-05T11:08:02.692Z,1022.00
2024-03-05T11:09:02.505Z,1025.00
2024-03-05T11:10:02.537Z,1031.00
2024-03-05T11:11:02.621Z,1034.00
2024-03-05T11:12:02.571Z,1041.00
2024-03-05T11:13:02.539Z,1050.00
2024-03-05T11:14:02.595Z,1049.00
2024-03-05T11:15:02.560Z,1054.00
2024-03-05T11:16:02.549Z,1052.00
2024-03-05T11:17:02.560Z,1054.00
2024-03-05T11:18:02.665Z,1052.00
2024-03-05T11:19:02.543Z,1061.00
2024-03-05T11:20:02.687Z,1066.00
2024-03-05T11:21:02.526Z,1064.00
2024-03-05T11:22:02.561Z,1062.00
2024-03-05T11:23:02.725Z,1063.00
2024-03-05T11:24:02.679Z,1066.00
2024-03-05T11:25:02.699Z,1068.00
2024-03-05T11:26:02.950Z,1074.00
2024-03-05T11:27:02.804Z,1083.00
2024-03-05T11:28:02.814Z,1088.00
2024-03-05T11:29:03.030Z,1089.00
2024-03-05T11:30:02.936Z,1092.00
2024-03-05T11:31:02.981Z,1099.00
2024-03-05T11:32:03.129Z,1104.00
2024-03-05T11:33:03.145Z,1105.00
2024-03-05T11:34:03.129Z,1112.00
2024-03-05T11:35:03.373Z,1115.00
2024-03-05T11:36:03.248Z,1118.00
2024-03-05T11:37:04.096Z,1119.00
2024-03-05T11:38:04.103Z,1011.00
2024-03-05T11:39:03.412Z,978.00
2024-03-05T11:40:03.443Z,987.00
2024-03-05T11:41:03.585Z,979.00
2024-03-05T11:42:03.646Z,1039.00
2024-03-05T11:43:03.589Z,1016.00
2024-03-05T11:44:03.827Z,1009.00
2024-03-05T11:45:03.755Z,1014.00
2024-03-05T11:46:03.760Z,1028.00
2024-03-05T11:47:03.910Z,1059.00
2024-03-05T11:48:04.197Z,1084.00
2024-03-05T11:49:03.975Z,1098.00
2024-03-05T11:50:04.107Z,1128.00
2024-03-05T11:51:04.033Z,1153.00
2024-03-05T11:52:04.113Z,1178.00
2024-03-05T11:53:04.226Z,1190.00
2024-03-05T11:54:04.183Z,1202.00
2024-03-05T11:55:04.230Z,1230.00
2024-03-05T11:56:04.353Z,1250.00
2024-03-05T11:57:04.326Z,1262.00
2024-03-05T11:58:04.622Z,1280.00
2024-03-05T11:59:04.659Z,1296.00
2024-03-05T12:00:04.463Z,1310.00
2024-03-05T12:01:04.504Z,1319.00
2024-03-05T12:02:04.588Z,1349.00
2024-03-05T12:03:04.558Z,1373.00
2024-03-05T12:04:04.639Z,1378.00
2024-03-05T12:05:04.636Z,1382.00
2024-03-05T12:06:04.553Z,1391.00
2024-03-05T12:07:04.615Z,1409.00
2024-03-05T12:08:04.692Z,1426.00
2024-03-05T12:09:04.685Z,1438.00
2024-03-05T12:10:04.693Z,1452.00
2024-03-05T12:11:04.923Z,1461.00
2024-03-05T12:12:05.130Z,1470.00
2024-03-05T12:13:04.703Z,1482.00
2024-03-05T12:14:05.202Z,1498.00
2024-03-05T12:15:06.740Z,1516.00
2024-03-05T12:16:04.888Z,1527.00
2024-03-05T12:17:05.243Z,1537.00
2024-03-05T12:18:04.941Z,1546.00
2024-03-05T12:19:05.149Z,1561.00
2024-03-05T12:20:05.171Z,1639.00
2024-03-05T12:21:04.945Z,1619.00
2024-03-05T12:22:04.981Z,1613.00
2024-03-05T12:23:05.143Z,1616.00
2024-03-05T12:24:05.156Z,1620.00
2024-03-05T12:25:05.051Z,1627.00